createdAt,value
2019-03-24T00:00:10.930Z,9.37
2019-03-24T00:02:39.257Z,8.90
2019-03-24T00:05:05.520Z,9.10
2019-03-24T00:07:31.771Z,8.67
2019-03-24T00:09:57.930Z,8.53
2019-03-24T00:12:24.287Z,9.07
2019-03-24T00:14:50.415Z,8.87
2019-03-24T00:17:16.667Z,8.97
2019-03-24T00:19:42.812Z,8.87
2019-03-24T00:22:08.955Z,7.90
2019-03-24T00:24:35.094Z,7.80
2019-03-24T00:27:01.242Z,7.20
2019-03-24T00:29:27.390Z,8.20
2019-03-24T00:31:53.535Z,7.03
2019-03-24T00:34:19.683Z,6.77
2019-03-24T00:36:46.158Z,7.03
2019-03-24T00:39:12.580Z,6.30
2019-03-24T00:41:38.722Z,6.63
2019-03-24T00:44:04.868Z,5.80
2019-03-24T00:46:32.021Z,5.63
2019-03-24T00:48:58.155Z,5.60
2019-03-24T00:51:24.305Z,6.00
2019-03-24T00:53:50.438Z,5.47
2019-03-24T00:56:16.903Z,5.70
2019-03-24T00:58:43.043Z,6.07
2019-03-24T01:01:09.183Z,6.73
2019-03-24T01:03:35.329Z,6.73
2019-03-24T01:06:01.944Z,5.33
2019-03-24T01:08:28.224Z,7.00
2019-03-24T01:10:54.683Z,6.87
2019-03-24T01:13:21.031Z,6.47
2019-03-24T01:15:48.169Z,6.33
2019-03-24T01:18:14.698Z,6.03
2019-03-24T01:20:40.847Z,5.93
2019-03-24T01:23:06.992Z,6.23
2019-03-24T01:25:33.128Z,6.37
2019-03-24T01:27:59.265Z,7.03
2019-03-24T01:30:25.634Z,6.97
2019-03-24T01:32:52.064Z,6.47
2019-03-24T01:35:18.199Z,7.13
2019-03-24T01:37:44.347Z,6.53
2019-03-24T01:40:10.692Z,7.13
2019-03-24T01:42:36.835Z,7.43
2019-03-24T01:45:05.175Z,6.90
2019-03-24T01:47:31.591Z,6.70
2019-03-24T01:49:57.732Z,7.33
2019-03-24T01:52:23.866Z,7.17
2019-03-24T01:54:50.291Z,7.40
2019-03-24T01:57:16.427Z,8.40
2019-03-24T01:59:42.581Z,8.03
2019-03-24T02:02:08.753Z,7.90
2019-03-24T02:04:34.965Z,7.80
2019-03-24T02:07:01.150Z,8.17
2019-03-24T02:09:27.302Z,7.37
2019-03-24T02:11:53.671Z,8.10
2019-03-24T02:14:19.839Z,7.83
2019-03-24T02:16:45.972Z,8.23
2019-03-24T02:19:13.227Z,8.33
2019-03-24T02:21:40.362Z,8.13
2019-03-24T02:24:06.511Z,8.03
2019-03-24T02:26:32.642Z,9.07
2019-03-24T02:28:58.800Z,9.57
2019-03-24T02:31:24.940Z,9.40
2019-03-24T02:33:51.287Z,8.60
2019-03-24T02:36:17.421Z,9.83
2019-03-24T02:38:43.567Z,9.60
2019-03-24T02:41:09.710Z,9.83
2019-03-24T02:43:35.848Z,9.60
2019-03-24T02:46:01.999Z,9.67
2019-03-24T02:48:28.152Z,10.40
2019-03-24T02:50:54.303Z,9.50
2019-03-24T02:53:20.502Z,9.53
2019-03-24T02:55:46.693Z,10.23
2019-03-24T02:58:12.941Z,9.90
2019-03-24T03:00:39.477Z,9.57
2019-03-24T03:03:05.618Z,9.13
2019-03-24T03:05:53.344Z,8.70
2019-03-24T03:08:19.503Z,9.63
2019-03-24T03:10:45.668Z,9.03
2019-03-24T03:13:12.930Z,9.13
2019-03-24T03:15:39.096Z,9.47
2019-03-24T03:18:05.277Z,8.97
2019-03-24T03:20:32.523Z,9.40
2019-03-24T03:22:58.986Z,9.93
2019-03-24T03:25:25.181Z,10.17
2019-03-24T03:27:51.407Z,9.00
2019-03-24T03:30:17.662Z,9.70
2019-03-24T03:32:43.920Z,9.97
2019-03-24T03:35:10.372Z,7.90
2019-03-24T03:37:36.869Z,8.53
2019-03-24T03:40:06.334Z,9.23
2019-03-24T03:42:32.514Z,9.27
2019-03-24T03:44:58.713Z,9.50
2019-03-24T03:47:24.883Z,8.67
2019-03-24T03:49:51.046Z,8.67
2019-03-24T03:52:17.204Z,8.60
2019-03-24T03:54:43.374Z,8.53
2019-03-24T03:57:09.535Z,8.93
2019-03-24T03:59:35.686Z,7.83
2019-03-24T04:02:01.862Z,9.33
2019-03-24T04:04:28.358Z,8.00
2019-03-24T04:06:54.526Z,7.53
2019-03-24T04:09:20.676Z,8.13
2019-03-24T04:11:46.849Z,7.53
2019-03-24T04:14:12.992Z,8.37
2019-03-24T04:16:39.163Z,7.43
2019-03-24T04:19:05.334Z,7.87
2019-03-24T04:21:32.481Z,7.73
2019-03-24T04:23:58.638Z,6.60
2019-03-24T04:26:24.790Z,7.27
2019-03-24T04:28:50.944Z,7.07
2019-03-24T04:31:17.103Z,8.03
2019-03-24T04:33:43.297Z,6.73
2019-03-24T04:36:09.755Z,7.23
2019-03-24T04:38:36.165Z,7.33
2019-03-24T04:41:03.339Z,6.80
2019-03-24T04:43:29.487Z,6.80
2019-03-24T04:45:55.758Z,6.60
2019-03-24T04:48:23.024Z,6.53
2019-03-24T04:50:49.185Z,6.83
2019-03-24T04:53:15.348Z,6.73
2019-03-24T04:55:41.505Z,5.93
2019-03-24T04:58:07.656Z,7.03
2019-03-24T05:00:38.024Z,6.30
2019-03-24T05:03:04.192Z,7.73
2019-03-24T05:05:30.638Z,6.83
2019-03-24T05:07:57.010Z,5.40
2019-03-24T05:10:25.221Z,6.43
2019-03-24T05:12:53.630Z,6.33
2019-03-24T05:15:19.771Z,5.93
2019-03-24T05:17:45.931Z,6.63
2019-03-24T05:20:12.088Z,6.13
2019-03-24T05:22:38.239Z,6.50
2019-03-24T05:25:04.400Z,6.40
2019-03-24T05:27:30.564Z,6.97
2019-03-24T05:29:57.001Z,6.27
2019-03-24T05:32:23.159Z,5.87
2019-03-24T05:34:49.322Z,6.27
2019-03-24T05:37:15.465Z,6.70
2019-03-24T05:39:41.627Z,6.63
2019-03-24T05:42:07.770Z,6.10
2019-03-24T05:44:33.919Z,6.53
2019-03-24T05:47:00.075Z,6.83
2019-03-24T05:49:26.236Z,5.53
2019-03-24T05:51:52.383Z,6.63
2019-03-24T05:54:18.543Z,6.43
2019-03-24T05:56:44.695Z,5.80
2019-03-24T05:59:10.982Z,6.63
2019-03-24T06:01:37.464Z,5.90
2019-03-24T06:04:03.628Z,6.20
2019-03-24T06:06:29.788Z,7.33
2019-03-24T06:08:55.930Z,6.27
2019-03-24T06:11:22.103Z,6.07
2019-03-24T06:13:48.257Z,6.20
2019-03-24T06:16:14.418Z,6.63
2019-03-24T06:18:40.847Z,6.17
2019-03-24T06:21:07.001Z,6.03
2019-03-24T06:23:33.165Z,6.47
2019-03-24T06:25:59.312Z,6.30
2019-03-24T06:28:25.466Z,6.57
2019-03-24T06:30:51.822Z,7.77
2019-03-24T06:33:17.967Z,6.10
2019-03-24T06:35:44.118Z,5.67
2019-03-24T06:38:10.264Z,6.37
2019-03-24T06:40:36.420Z,6.87
2019-03-24T06:43:02.778Z,7.03
2019-03-24T06:45:29.127Z,7.77
2019-03-24T06:47:58.141Z,6.87
2019-03-24T06:50:23.439Z,6.77
2019-03-24T06:52:49.606Z,6.60
2019-03-24T06:55:15.736Z,6.37
2019-03-24T06:57:42.347Z,5.90
2019-03-24T07:00:09.896Z,6.07
2019-03-24T07:02:36.062Z,5.83
2019-03-24T07:05:05.808Z,5.97
2019-03-24T07:07:31.967Z,5.53
2019-03-24T07:09:58.111Z,6.47
2019-03-24T07:12:24.284Z,5.93
2019-03-24T07:14:50.426Z,5.80
2019-03-24T07:17:16.588Z,6.40
2019-03-24T07:19:42.765Z,6.57
2019-03-24T07:22:08.923Z,6.70
2019-03-24T07:24:35.086Z,7.30
2019-03-24T07:27:01.257Z,6.37
2019-03-24T07:29:27.409Z,6.70
2019-03-24T07:31:53.861Z,6.93
2019-03-24T07:34:20.009Z,6.40
2019-03-24T07:36:46.403Z,7.63
2019-03-24T07:39:12.624Z,6.60
2019-03-24T07:41:38.788Z,6.73
2019-03-24T07:44:04.948Z,6.43
2019-03-24T07:46:31.094Z,6.37
2019-03-24T07:48:57.556Z,7.07
2019-03-24T07:51:23.724Z,6.57
2019-03-24T07:53:49.885Z,6.63
2019-03-24T07:56:16.057Z,5.80
2019-03-24T07:58:42.198Z,7.20
2019-03-24T08:01:08.351Z,7.70
2019-03-24T08:03:34.506Z,7.07
2019-03-24T08:06:00.672Z,7.13
2019-03-24T08:08:27.080Z,7.20
2019-03-24T08:10:53.238Z,7.17
2019-03-24T08:13:19.486Z,6.73
2019-03-24T08:15:45.651Z,7.90
2019-03-24T08:18:12.095Z,7.13
2019-03-24T08:20:38.254Z,7.93
2019-03-24T08:23:04.409Z,8.27
2019-03-24T08:25:30.546Z,9.67
2019-03-24T08:27:56.707Z,7.73
2019-03-24T08:30:32.187Z,7.33
2019-03-24T08:32:58.387Z,6.37
2019-03-24T08:35:24.535Z,6.70
2019-03-24T08:37:50.691Z,7.10
2019-03-24T08:40:16.848Z,6.23
2019-03-24T08:42:43.009Z,6.43
2019-03-24T08:45:12.966Z,6.60
2019-03-24T08:47:39.132Z,6.47
2019-03-24T08:50:06.095Z,6.70
2019-03-24T08:52:32.251Z,7.53
2019-03-24T08:54:59.798Z,7.50
2019-03-24T08:57:26.270Z,7.73
2019-03-24T08:59:52.498Z,7.33
2019-03-24T09:02:19.003Z,6.07
2019-03-24T09:04:45.147Z,6.43
2019-03-24T09:07:11.323Z,7.10
2019-03-24T09:09:37.465Z,6.73
2019-03-24T09:12:03.616Z,6.27
2019-03-24T09:14:29.772Z,6.63
2019-03-24T09:16:55.954Z,6.50
2019-03-24T09:19:22.108Z,6.37
2019-03-24T09:21:48.290Z,6.20
2019-03-24T09:24:14.461Z,6.87
2019-03-24T09:26:40.603Z,7.00
2019-03-24T09:29:06.790Z,6.60
2019-03-24T09:31:32.951Z,7.03
2019-03-24T09:33:59.109Z,6.10
2019-03-24T09:36:25.250Z,7.10
2019-03-24T09:38:51.449Z,6.40
2019-03-24T09:41:17.606Z,6.60
2019-03-24T09:43:43.784Z,6.50
2019-03-24T09:46:09.933Z,6.70
2019-03-24T09:48:36.084Z,6.33
2019-03-24T09:51:02.449Z,6.33
2019-03-24T09:53:28.922Z,6.20
2019-03-24T09:55:55.089Z,6.30
2019-03-24T09:58:21.240Z,6.10
2019-03-24T10:00:47.384Z,6.60
2019-03-24T10:03:13.541Z,6.07
2019-03-24T10:05:39.700Z,5.90
2019-03-24T10:08:05.851Z,5.83
2019-03-24T10:10:31.994Z,5.20
2019-03-24T10:12:58.159Z,5.00
2019-03-24T10:15:24.324Z,4.73
2019-03-24T10:17:50.492Z,6.10
2019-03-24T10:20:17.767Z,5.23
2019-03-24T10:22:43.920Z,6.27
2019-03-24T10:25:10.171Z,5.83
2019-03-24T10:27:36.320Z,6.13
2019-03-24T10:30:05.481Z,5.80
2019-03-24T10:32:31.640Z,5.80
2019-03-24T10:34:57.841Z,4.03
2019-03-24T10:37:24.328Z,4.67
2019-03-24T10:39:50.500Z,5.17
2019-03-24T10:42:16.653Z,4.03
2019-03-24T10:44:42.835Z,4.80
2019-03-24T10:47:08.972Z,4.60
2019-03-24T10:49:35.131Z,4.57
2019-03-24T10:52:01.286Z,3.67
2019-03-24T10:54:27.457Z,4.23
2019-03-24T10:56:53.608Z,3.57
2019-03-24T10:59:19.772Z,4.30
2019-03-24T11:01:45.941Z,4.30
2019-03-24T11:04:12.126Z,4.00
2019-03-24T11:06:38.269Z,4.00
2019-03-24T11:09:05.514Z,3.27
2019-03-24T11:11:31.690Z,3.80
2019-03-24T11:13:57.860Z,3.13
2019-03-24T11:16:24.015Z,3.80
2019-03-24T11:18:50.176Z,3.80
2019-03-24T11:21:16.360Z,4.53
2019-03-24T11:23:42.500Z,3.57
2019-03-24T11:26:08.661Z,4.00
2019-03-24T11:28:34.810Z,4.30
2019-03-24T11:31:00.973Z,3.90
2019-03-24T11:33:29.485Z,4.37
2019-03-24T11:35:55.206Z,4.23
2019-03-24T11:38:21.355Z,4.57
2019-03-24T11:40:47.503Z,3.87
2019-03-24T11:43:14.982Z,4.87
2019-03-24T11:45:41.139Z,4.60
2019-03-24T11:48:08.163Z,4.40
2019-03-24T11:50:34.344Z,4.50
2019-03-24T11:53:00.513Z,3.70
2019-03-24T11:55:26.659Z,3.77
2019-03-24T11:57:52.821Z,3.87
2019-03-24T12:00:23.081Z,3.13
2019-03-24T12:02:49.248Z,3.80
2019-03-24T12:05:15.400Z,3.10
2019-03-24T12:07:41.560Z,3.40
2019-03-24T12:10:09.202Z,4.03
2019-03-24T12:12:35.382Z,3.57
2019-03-24T12:15:01.549Z,2.73
2019-03-24T12:17:27.716Z,2.97
2019-03-24T12:19:56.965Z,2.93
2019-03-24T12:22:21.949Z,2.80
2019-03-24T12:24:48.324Z,2.40
2019-03-24T12:27:14.470Z,1.80
2019-03-24T12:29:40.628Z,2.13
2019-03-24T12:32:06.865Z,2.00
2019-03-24T12:34:33.021Z,2.20
2019-03-24T12:36:59.171Z,3.43
2019-03-24T12:39:25.345Z,3.27
2019-03-24T12:41:51.498Z,3.00
2019-03-24T12:44:17.671Z,2.60
2019-03-24T12:46:43.843Z,2.77
2019-03-24T12:49:09.992Z,3.60
2019-03-24T12:51:36.139Z,2.63
2019-03-24T12:54:02.511Z,2.80
2019-03-24T12:56:28.663Z,3.03
2019-03-24T12:58:54.832Z,2.77
2019-03-24T13:01:20.983Z,3.17
2019-03-24T13:03:47.367Z,2.47
2019-03-24T13:06:13.513Z,2.87
2019-03-24T13:08:39.677Z,3.10
2019-03-24T13:11:05.825Z,2.87
2019-03-24T13:13:31.988Z,2.80
2019-03-24T13:15:58.207Z,2.07
2019-03-24T13:18:28.433Z,2.87
2019-03-24T13:20:54.837Z,3.00
2019-03-24T13:23:21.007Z,3.30
2019-03-24T13:25:47.169Z,3.03
2019-03-24T13:28:13.426Z,2.53
2019-03-24T13:30:39.575Z,3.10
2019-03-24T13:33:05.737Z,2.43
2019-03-24T13:35:32.994Z,3.07
2019-03-24T13:37:59.156Z,2.37
2019-03-24T13:40:25.319Z,2.83
2019-03-24T13:42:51.463Z,2.50
2019-03-24T13:45:17.724Z,2.20
2019-03-24T13:47:43.884Z,2.80
2019-03-24T13:50:10.124Z,2.93
2019-03-24T13:52:36.341Z,2.57
2019-03-24T13:55:04.448Z,2.97
2019-03-24T13:57:30.624Z,2.73
2019-03-24T13:59:56.885Z,1.97
2019-03-24T14:02:24.032Z,2.27
2019-03-24T14:04:50.248Z,2.73
2019-03-24T14:07:16.466Z,2.00
2019-03-24T14:09:42.623Z,2.47
2019-03-24T14:12:08.780Z,2.50
2019-03-24T14:14:34.953Z,1.73
2019-03-24T14:17:01.112Z,2.30
2019-03-24T14:19:27.327Z,2.17
2019-03-24T14:21:53.482Z,2.10
2019-03-24T14:24:19.970Z,1.70
2019-03-24T14:26:46.387Z,2.10
2019-03-24T14:29:12.539Z,1.90
2019-03-24T14:31:38.714Z,1.60
2019-03-24T14:34:05.183Z,1.90
2019-03-24T14:36:31.338Z,2.10
2019-03-24T14:38:57.862Z,2.03
2019-03-24T14:41:24.295Z,2.40
2019-03-24T14:43:50.443Z,1.83
2019-03-24T14:46:16.627Z,3.07
2019-03-24T14:48:42.775Z,2.00
2019-03-24T14:51:08.936Z,2.10
2019-03-24T14:53:35.102Z,2.40
2019-03-24T14:56:01.252Z,2.37
2019-03-24T14:58:27.420Z,2.90
2019-03-24T15:00:53.571Z,2.97
2019-03-24T15:03:19.715Z,2.70
2019-03-24T15:05:46.151Z,2.90
2019-03-24T15:08:13.040Z,3.07
2019-03-24T15:10:39.202Z,2.30
2019-03-24T15:13:05.448Z,3.10
2019-03-24T15:15:31.874Z,3.00
2019-03-24T15:17:58.037Z,2.70
2019-03-24T15:20:24.190Z,3.60
2019-03-24T15:22:50.675Z,2.77
2019-03-24T15:25:16.849Z,3.27
2019-03-24T15:27:43.002Z,3.10
2019-03-24T15:30:10.046Z,3.23
2019-03-24T15:32:36.211Z,3.07
2019-03-24T15:35:04.360Z,2.90
2019-03-24T15:37:30.798Z,3.13
2019-03-24T15:39:58.151Z,2.97
2019-03-24T15:42:24.600Z,3.53
2019-03-24T15:44:50.747Z,2.57
2019-03-24T15:47:17.927Z,3.63
2019-03-24T15:49:44.420Z,3.37
2019-03-24T15:52:12.074Z,3.13
2019-03-24T15:54:38.508Z,3.10
2019-03-24T15:57:04.669Z,2.87
2019-03-24T15:59:30.816Z,3.53
2019-03-24T16:01:57.000Z,3.40
2019-03-24T16:04:23.151Z,3.23
2019-03-24T16:06:49.311Z,2.50
2019-03-24T16:09:15.470Z,2.90
2019-03-24T16:11:41.614Z,3.40
2019-03-24T16:14:07.870Z,3.10
2019-03-24T16:16:34.035Z,2.70
2019-03-24T16:19:00.193Z,3.87
2019-03-24T16:21:28.051Z,4.50
2019-03-24T16:23:54.687Z,3.63
2019-03-24T16:26:20.845Z,3.10
2019-03-24T16:28:47.006Z,3.50
2019-03-24T16:31:13.159Z,2.67
2019-03-24T16:33:39.303Z,2.63
2019-03-24T16:36:05.484Z,2.57
2019-03-24T16:38:31.719Z,3.20
2019-03-24T16:40:57.883Z,2.30
2019-03-24T16:43:24.058Z,2.67
2019-03-24T16:45:50.221Z,2.70
2019-03-24T16:48:16.375Z,3.10
2019-03-24T16:50:42.516Z,2.90
2019-03-24T16:53:08.666Z,2.63
2019-03-24T16:55:35.289Z,2.90
2019-03-24T16:58:01.448Z,2.77
2019-03-24T17:00:27.604Z,2.40
2019-03-24T17:02:53.754Z,2.83
2019-03-24T17:05:19.902Z,2.00
2019-03-24T17:07:46.058Z,3.87
2019-03-24T17:10:12.421Z,2.70
2019-03-24T17:12:39.633Z,3.10
2019-03-24T17:15:06.640Z,2.90
2019-03-24T17:17:32.882Z,2.80
2019-03-24T17:19:59.044Z,2.43
2019-03-24T17:22:25.221Z,2.60
2019-03-24T17:24:51.475Z,3.00
2019-03-24T17:27:17.987Z,2.43
2019-03-24T17:29:44.206Z,2.97
2019-03-24T17:32:10.355Z,3.17
2019-03-24T17:34:36.815Z,3.07
2019-03-24T17:37:02.958Z,2.60
2019-03-24T17:39:30.241Z,2.63
2019-03-24T17:41:56.377Z,3.07
2019-03-24T17:44:22.522Z,3.00
2019-03-24T17:46:48.689Z,2.90
2019-03-24T17:49:14.852Z,2.93
2019-03-24T17:51:41.003Z,3.20
2019-03-24T17:54:07.162Z,2.27
2019-03-24T17:56:33.315Z,2.83
2019-03-24T17:58:59.496Z,2.60
2019-03-24T18:01:25.648Z,2.47
2019-03-24T18:03:51.813Z,2.50
2019-03-24T18:06:17.963Z,2.67
2019-03-24T18:08:44.134Z,2.37
2019-03-24T18:11:10.274Z,2.53
2019-03-24T18:13:36.461Z,2.67
2019-03-24T18:16:02.913Z,2.53
2019-03-24T18:18:29.378Z,2.57
2019-03-24T18:20:55.529Z,3.22
2019-03-24T18:23:21.701Z,2.57
2019-03-24T18:25:47.857Z,3.53
2019-03-24T18:28:15.007Z,2.70
2019-03-24T18:30:41.174Z,3.17
2019-03-24T18:33:07.311Z,3.10
2019-03-24T18:35:33.565Z,3.20
2019-03-24T18:38:00.013Z,3.53
2019-03-24T18:40:26.178Z,3.10
2019-03-24T18:42:52.324Z,3.30
2019-03-24T18:45:18.679Z,4.33
2019-03-24T18:47:45.138Z,3.80
2019-03-24T18:50:11.802Z,3.50
2019-03-24T18:52:37.955Z,3.80
2019-03-24T18:55:06.509Z,3.70
2019-03-24T18:57:32.912Z,3.60
2019-03-24T18:59:59.075Z,3.10
2019-03-24T19:02:25.219Z,3.67
2019-03-24T19:04:51.399Z,3.53
2019-03-24T19:07:17.853Z,4.37
2019-03-24T19:09:46.326Z,3.73
2019-03-24T19:12:12.480Z,3.40
2019-03-24T19:14:40.183Z,3.37
2019-03-24T19:17:06.492Z,3.00
2019-03-24T19:19:32.686Z,3.30
2019-03-24T19:21:58.866Z,2.57
2019-03-24T19:24:25.022Z,3.50
2019-03-24T19:26:51.461Z,3.17
2019-03-24T19:29:17.614Z,2.67
2019-03-24T19:31:43.825Z,3.33
2019-03-24T19:34:09.960Z,2.97
2019-03-24T19:36:36.128Z,3.33
2019-03-24T19:39:05.578Z,3.37
2019-03-24T19:41:32.061Z,3.87
2019-03-24T19:43:58.527Z,2.97
2019-03-24T19:46:24.701Z,2.90
2019-03-24T19:48:50.867Z,3.07
2019-03-24T19:51:17.045Z,3.07
2019-03-24T19:53:43.207Z,2.77
2019-03-24T19:56:09.365Z,3.87
2019-03-24T19:58:35.510Z,3.40
2019-03-24T20:01:01.672Z,3.37
2019-03-24T20:03:27.819Z,3.60
2019-03-24T20:05:55.175Z,3.40
2019-03-24T20:08:22.421Z,3.77
2019-03-24T20:10:48.899Z,3.90
2019-03-24T20:13:15.064Z,4.10
2019-03-24T20:15:41.229Z,3.60
2019-03-24T20:18:08.485Z,3.70
2019-03-24T20:20:34.670Z,4.17
2019-03-24T20:23:00.866Z,3.60
2019-03-24T20:25:27.046Z,3.70
2019-03-24T20:27:53.221Z,3.53
2019-03-24T20:30:19.387Z,3.43
2019-03-24T20:32:45.644Z,3.33
2019-03-24T20:35:11.887Z,4.13
2019-03-24T20:37:38.056Z,3.87
2019-03-24T20:40:08.287Z,4.00
2019-03-24T20:42:34.504Z,3.50
2019-03-24T20:45:00.668Z,4.10
2019-03-24T20:47:26.828Z,4.10
2019-03-24T20:49:52.985Z,4.10
2019-03-24T20:52:19.154Z,4.83
2019-03-24T20:54:45.331Z,4.03
2019-03-24T20:57:11.498Z,3.97
2019-03-24T20:59:37.656Z,3.60
2019-03-24T21:02:03.929Z,4.33
2019-03-24T21:04:30.080Z,3.70
2019-03-24T21:06:56.277Z,4.37
2019-03-24T21:09:23.021Z,4.13
2019-03-24T21:11:49.318Z,4.23
2019-03-24T21:14:15.856Z,4.07
2019-03-24T21:16:42.004Z,3.47
2019-03-24T21:19:08.169Z,3.53
2019-03-24T21:21:36.200Z,4.70
2019-03-24T21:24:02.492Z,4.60
2019-03-24T21:26:28.737Z,6.23
2019-03-24T21:28:54.974Z,6.17
2019-03-24T21:31:21.140Z,4.00
2019-03-24T21:33:47.397Z,3.90
2019-03-24T21:36:13.711Z,4.23
2019-03-24T21:38:40.183Z,3.83
2019-03-24T21:41:06.323Z,3.83
2019-03-24T21:43:32.490Z,5.67
2019-03-24T21:45:58.643Z,5.40
2019-03-24T21:48:24.799Z,4.70
2019-03-24T21:50:50.969Z,4.93
2019-03-24T21:53:17.127Z,4.70
2019-03-24T21:55:43.280Z,4.23
2019-03-24T21:58:09.442Z,4.83
2019-03-24T22:00:36.553Z,4.53
2019-03-24T22:03:03.434Z,5.10
2019-03-24T22:05:29.571Z,4.40
2019-03-24T22:07:56.054Z,4.87
2019-03-24T22:10:22.317Z,6.37
2019-03-24T22:12:48.501Z,6.50
2019-03-24T22:15:14.668Z,6.50
2019-03-24T22:17:40.857Z,7.00
2019-03-24T22:20:07.227Z,6.70
2019-03-24T22:22:33.407Z,5.33
2019-03-24T22:24:59.575Z,4.57
2019-03-24T22:27:25.719Z,5.30
2019-03-24T22:29:51.988Z,4.90
2019-03-24T22:32:18.138Z,6.13
2019-03-24T22:34:44.558Z,5.33
2019-03-24T22:37:15.866Z,5.37
2019-03-24T22:39:38.774Z,5.83
2019-03-24T22:42:04.933Z,5.13
2019-03-24T22:44:31.091Z,4.87
2019-03-24T22:46:57.543Z,4.97
2019-03-24T22:49:23.974Z,4.27
2019-03-24T22:51:50.158Z,4.43
2019-03-24T22:54:16.322Z,4.73
2019-03-24T22:56:42.570Z,5.83
2019-03-24T22:59:08.842Z,6.87
2019-03-24T23:01:35.086Z,5.30
2019-03-24T23:04:01.456Z,5.23
2019-03-24T23:06:27.599Z,6.03
2019-03-24T23:08:54.015Z,5.63
2019-03-24T23:11:20.381Z,5.53
2019-03-24T23:13:46.770Z,10.13
2019-03-24T23:16:12.922Z,7.77
2019-03-24T23:18:39.095Z,8.23
2019-03-24T23:21:05.267Z,8.20
2019-03-24T23:23:31.439Z,7.17
2019-03-24T23:25:57.591Z,7.17
2019-03-24T23:28:23.743Z,6.00
2019-03-24T23:30:49.991Z,4.90
2019-03-24T23:33:16.147Z,5.63
2019-03-24T23:35:42.322Z,5.97
2019-03-24T23:38:08.463Z,6.67
2019-03-24T23:40:34.632Z,5.97
2019-03-24T23:43:00.795Z,5.63
2019-03-24T23:45:26.953Z,5.27
2019-03-24T23:47:53.327Z,4.57
2019-03-24T23:50:19.481Z,4.80
2019-03-24T23:52:45.645Z,5.00
2019-03-24T23:55:11.786Z,4.00
2019-03-24T23:57:37.939Z,4.70
